Time;durP1;ratioP1;P1;durP2;ratioP2;P2;SDS_P1;SDS_P2;PMS_P1;PMS_P2;Temp;Humidity;BMP_temperature;BMP_pressure;BME280_temperature;BME280_humidity;BME280_pressure;Samples;Min_cycle;Max_cycle;Signal;HPM_P1;HPM_P2
2022/07/22 00:01:50;;;;;;;4.20;1.12;;;;;;;27.72;32.57;99643.97;4389754;32;33453;-81
2022/07/22 00:04:24;;;;;;;6.45;1.95;;;;;;;27.41;34.46;99645.72;4378590;32;33791;-79
2022/07/22 00:06:52;;;;;;;3.00;1.50;;;;;;;27.36;34.73;99637.28;4378112;32;33690;-79
2022/07/22 00:09:25;;;;;;;3.15;1.50;;;;;;;27.23;35.57;99642.78;4374077;32;34698;-80
2022/07/22 00:11:54;;;;;;;2.92;1.42;;;;;;;27.20;35.44;99640.38;4371912;32;34160;-79
2022/07/22 00:14:29;;;;;;;3.47;1.35;;;;;;;27.20;35.43;99641.22;4372892;32;34620;-80
2022/07/22 00:16:57;;;;;;;2.25;1.30;;;;;;;27.18;36.39;99635.16;4376542;32;33555;-79
2022/07/22 00:19:29;;;;;;;5.03;1.50;;;;;;;27.18;36.21;99637.81;4372450;32;34641;-78
2022/07/22 00:21:58;;;;;;;2.80;0.98;;;;;;;27.08;36.80;99638.69;4379250;32;34257;-80
2022/07/22 00:24:27;;;;;;;1.50;0.98;;;;;;;27.13;36.78;99634.66;4372377;32;34471;-76
2022/07/22 00:26:57;;;;;;;2.95;1.33;;;;;;;27.04;36.74;99640.78;4372931;32;33178;-78
2022/07/22 00:29:31;;;;;;;2.42;1.30;;;;;;;27.02;36.46;99632.91;4379095;32;33965;-78
2022/07/22 00:32:00;;;;;;;4.28;1.25;;;;;;;27.00;35.93;99636.69;4384070;32;33399;-77
2022/07/22 00:34:41;;;;;;;3.87;2.08;;;;;;;26.98;35.58;99643.94;4379972;32;33835;-78
2022/07/22 00:37:11;;;;;;;3.37;1.55;;;;;;;26.82;35.90;99652.34;4375422;32;34143;-77
2022/07/22 00:39:40;;;;;;;2.47;1.35;;;;;;;26.88;35.23;99654.50;4376411;32;33640;-77
2022/07/22 00:42:15;;;;;;;1.98;1.02;;;;;;;26.54;35.49;99656.38;4376820;32;33443;-77
2022/07/22 00:44:45;;;;;;;2.92;1.40;;;;;;;26.48;35.13;99660.38;4376968;32;33653;-77
2022/07/22 00:47:18;;;;;;;2.22;1.20;;;;;;;26.31;36.42;99661.72;4374865;32;33878;-78
2022/07/22 00:49:48;;;;;;;2.40;1.25;;;;;;;26.45;36.19;99657.09;4372452;32;35075;-77
2022/07/22 00:52:19;;;;;;;3.40;1.50;;;;;;;26.53;35.83;99670.63;4378048;32;32356;-78
2022/07/22 00:54:48;;;;;;;4.55;1.87;;;;;;;26.33;36.50;99673.03;4382144;32;33946;-78
2022/07/22 00:57:20;;;;;;;2.03;1.25;;;;;;;26.35;36.18;99676.44;4377843;32;34705;-77
2022/07/22 00:59:49;;;;;;;2.90;1.40;;;;;;;26.16;36.32;99670.88;4374096;32;32582;-78
2022/07/22 01:02:24;;;;;;;2.05;1.10;;;;;;;26.05;36.68;99668.22;4373996;32;33376;-77
2022/07/22 01:04:55;;;;;;;3.47;1.27;;;;;;;26.12;35.97;99666.75;4375422;32;34025;-79
2022/07/22 01:07:31;;;;;;;7.22;1.75;;;;;;;26.20;35.95;99664.34;4372396;32;33747;-79
2022/07/22 01:10:00;;;;;;;2.90;1.27;;;;;;;26.20;36.17;99664.34;4373903;32;34534;-78
2022/07/22 01:12:32;;;;;;;3.45;1.62;;;;;;;26.28;35.50;99671.72;4371011;32;33523;-77
2022/07/22 01:15:06;;;;;;;2.75;1.27;;;;;;;26.17;35.20;99669.94;4378024;32;34313;-77
2022/07/22 01:17:34;;;;;;;2.22;1.10;;;;;;;26.20;35.61;99668.84;4370701;32;33980;-78
2022/07/22 01:20:08;;;;;;;3.87;1.45;;;;;;;26.21;35.31;99668.69;4372602;32;33809;-77
2022/07/22 01:22:37;;;;;;;2.58;1.10;;;;;;;26.04;35.57;99675.34;4373429;32;34176;-78
2022/07/22 01:25:09;;;;;;;2.35;1.27;;;;;;;26.28;34.91;99675.22;4372254;32;33785;-78
2022/07/22 01:27:38;;;;;;;2.80;1.30;;;;;;;26.27;34.70;99670.88;4376108;32;34000;-79
2022/07/22 01:30:12;;;;;;;3.10;1.37;;;;;;;26.17;35.24;99660.13;4373657;32;34069;-80
2022/07/22 01:32:41;;;;;;;2.05;1.10;;;;;;;26.08;34.89;99657.34;4375558;32;33540;-78
2022/07/22 01:35:14;;;;;;;2.53;1.23;;;;;;;26.28;35.87;99653.94;4370388;32;34618;-79
2022/07/22 01:37:43;;;;;;;2.37;1.15;;;;;;;26.27;35.52;99657.59;4370800;32;34350;-79
2022/07/22 01:40:15;;;;;;;1.65;1.23;;;;;;;26.13;34.93;99658.66;4370596;32;34302;-79
2022/07/22 01:42:44;;;;;;;1.65;0.85;;;;;;;26.15;34.65;99662.06;4376036;32;33860;-78
2022/07/22 01:45:15;;;;;;;2.30;1.10;;;;;;;26.20;35.03;99653.72;4378247;32;34090;-79
2022/07/22 01:47:44;;;;;;;2.90;1.73;;;;;;;26.03;34.95;99656.88;4381049;32;33922;-79
2022/07/22 01:50:17;;;;;;;2.45;1.40;;;;;;;26.11;34.47;99655.28;4371411;32;33837;-78
2022/07/22 01:52:45;;;;;;;2.95;1.58;;;;;;;26.13;35.20;99660.50;4370791;32;33335;-77
2022/07/22 01:55:18;;;;;;;3.92;1.45;;;;;;;26.09;35.05;99646.56;4389223;32;34372;-81
2022/07/22 01:57:46;;;;;;;5.78;2.00;;;;;;;26.00;34.54;99651.75;4385956;32;33746;-78
2022/07/22 02:00:20;;;;;;;2.05;1.23;;;;;;;26.02;34.54;99655.16;4386116;32;33968;-78
2022/07/22 02:02:49;;;;;;;3.83;1.45;;;;;;;26.01;34.46;99649.00;4388709;32;33174;-77
2022/07/22 02:05:22;;;;;;;4.35;2.22;;;;;;;26.10;34.84;99658.06;4378704;32;33710;-79
2022/07/22 02:07:52;;;;;;;3.12;1.75;;;;;;;26.02;34.91;99657.81;4372821;32;34099;-78
2022/07/22 02:10:22;;;;;;;2.92;1.55;;;;;;;25.85;34.51;99654.62;4379130;32;34913;-79
2022/07/22 02:12:51;;;;;;;2.15;1.40;;;;;;;25.96;34.77;99662.66;4373183;32;33684;-77
2022/07/22 02:15:23;;;;;;;6.65;1.58;;;;;;;25.86;34.86;99668.81;4373492;32;33910;-78
2022/07/22 02:17:53;;;;;;;1.55;1.00;;;;;;;25.65;35.04;99671.25;4373912;32;34747;-77
2022/07/22 02:20:25;;;;;;;2.40;1.25;;;;;;;25.71;34.77;99673.47;4373735;32;33803;-79
2022/07/22 02:22:54;;;;;;;2.40;1.08;;;;;;;25.69;34.65;99670.91;4379057;32;34450;-78
2022/07/22 02:25:26;;;;;;;2.92;1.10;;;;;;;25.62;34.60;99672.34;4382263;32;34033;-79
2022/07/22 02:27:58;;;;;;;1.75;1.10;;;;;;;25.64;34.10;99677.53;4381427;32;34696;-77
2022/07/22 02:30:27;;;;;;;2.03;1.15;;;;;;;25.58;33.54;99672.69;4373097;32;34912;-78
2022/07/22 02:32:59;;;;;;;1.30;0.90;;;;;;;25.27;33.93;99678.50;4372967;32;33723;-77
2022/07/22 02:35:30;;;;;;;2.47;0.90;;;;;;;25.34;34.39;99673.56;4372981;32;33862;-77
2022/07/22 02:37:59;;;;;;;;;;;;;;;25.47;34.41;99676.16;4378059;32;34020;-79
2022/07/22 02:40:33;;;;;;;2.45;1.10;;;;;;;25.44;34.06;99677.25;4372628;32;34532;-78
2022/07/22 02:43:02;;;;;;;3.00;1.30;;;;;;;25.22;34.18;99677.97;4358110;32;33508;-77
2022/07/22 02:45:31;;;;;;;2.35;1.17;;;;;;;25.29;34.24;99676.56;4358265;32;33691;-78
2022/07/22 02:48:00;;;;;;;1.90;0.98;;;;;;;25.37;34.17;99677.78;4360056;32;33778;-78
2022/07/22 02:50:34;;;;;;;2.28;1.15;;;;;;;25.48;34.71;99677.84;4362958;32;34068;-78
2022/07/22 02:53:04;;;;;;;2.50;1.30;;;;;;;25.30;34.05;99680.94;4362530;32;34225;-79
2022/07/22 02:55:34;;;;;;;1.65;0.80;;;;;;;25.20;34.03;99681.72;4358444;32;33925;-79
2022/07/22 02:58:05;;;;;;;3.10;1.10;;;;;;;25.30;34.36;99682.75;4359511;32;34145;-78
2022/07/22 03:00:38;;;;;;;3.33;2.00;;;;;;;25.46;33.72;99680.59;4354251;32;33231;-77
2022/07/22 03:03:07;;;;;;;3.03;1.45;;;;;;;25.42;33.65;99684.47;4359286;32;34282;-78
2022/07/22 03:05:40;;;;;;;1.80;1.00;;;;;;;25.38;33.96;99683.00;4372709;32;33378;-77
2022/07/22 03:08:11;;;;;;;2.20;0.82;;;;;;;25.25;34.23;99674.25;4362274;32;34053;-78
2022/07/22 03:10:43;;;;;;;3.40;1.27;;;;;;;25.04;34.76;99680.16;4346377;32;34626;-77
2022/07/22 03:13:12;;;;;;;2.67;1.20;;;;;;;25.11;34.66;99678.75;4368666;32;34308;-78
2022/07/22 03:15:47;;;;;;;1.95;0.82;;;;;;;25.26;35.01;99690.06;4359841;32;34007;-78
2022/07/22 03:18:17;;;;;;;2.37;1.73;;;;;;;25.19;34.26;99683.53;4370474;32;34183;-78
2022/07/22 03:20:50;;;;;;;2.80;1.05;;;;;;;25.21;34.43;99686.06;4376746;32;33388;-78
2022/07/22 03:23:23;;;;;;;1.80;0.80;;;;;;;25.23;34.25;99678.84;4364355;32;33512;-78
2022/07/22 03:25:56;;;;;;;3.97;1.00;;;;;;;25.25;34.83;99682.22;4373676;32;32617;-77
2022/07/22 03:28:25;;;;;;;1.77;1.50;;;;;;;25.03;34.78;99683.78;4368572;32;34028;-78
2022/07/22 03:30:54;;;;;;;1.35;0.93;;;;;;;25.01;34.73;99687.50;4371193;32;35079;-78
2022/07/22 03:33:26;;;;;;;4.85;0.80;;;;;;;25.20;34.60;99687.00;4368719;32;33512;-79
2022/07/22 03:35:57;;;;;;;2.58;1.10;;;;;;;25.17;35.34;99692.53;4361655;32;33952;-77
2022/07/22 03:38:29;;;;;;;3.42;1.05;;;;;;;25.22;33.86;99698.38;4366626;32;34048;-81
2022/07/22 03:40:58;;;;;;;3.47;1.00;;;;;;;25.19;34.16;99696.78;4363415;32;34804;-78
2022/07/22 03:43:29;;;;;;;2.60;1.10;;;;;;;25.24;33.68;99701.78;4386226;32;33142;-77
2022/07/22 03:45:59;;;;;;;2.40;1.50;;;;;;;25.01;34.98;99700.75;4386222;32;33845;-77
2022/07/22 03:48:31;;;;;;;1.35;0.80;;;;;;;25.13;34.67;99699.88;4384840;32;33935;-78
2022/07/22 03:51:02;;;;;;;2.15;1.10;;;;;;;24.95;34.38;99702.06;4376710;32;33833;-79
2022/07/22 03:53:34;;;;;;;2.10;0.90;;;;;;;24.95;34.35;99703.87;4378701;32;32554;-79
2022/07/22 03:56:03;;;;;;;3.40;1.00;;;;;;;24.99;34.79;99702.69;4376887;32;34047;-79
2022/07/22 03:58:34;;;;;;;1.48;1.00;;;;;;;24.86;35.88;99700.06;4384467;32;33709;-78
2022/07/22 04:01:03;;;;;;;;;;;;;;;24.94;35.81;99702.19;4388778;32;34010;-78
2022/07/22 04:03:35;;;;;;;1.90;1.20;;;;;;;24.98;35.88;99701.84;4380693;32;34365;-80
2022/07/22 04:06:07;;;;;;;2.15;1.20;;;;;;;25.11;36.27;99696.50;4386745;32;33759;-79
2022/07/22 04:08:38;;;;;;;2.67;1.00;;;;;;;24.77;36.65;99695.47;4385381;32;34068;-79
2022/07/22 04:11:07;;;;;;;3.05;1.62;;;;;;;25.03;36.75;99699.72;4377518;32;33915;-78
2022/07/22 04:13:37;;;;;;;3.20;1.15;;;;;;;25.29;34.65;99692.50;4379216;32;34123;-78
2022/07/22 04:16:06;;;;;;;2.87;1.40;;;;;;;25.34;36.46;99693.00;4381534;32;33933;-79
2022/07/22 04:18:36;;;;;;;2.33;1.10;;;;;;;25.23;35.60;99692.97;4381706;32;33844;-77
2022/07/22 04:21:08;;;;;;;3.83;0.90;;;;;;;25.41;34.64;99695.22;4371717;32;33964;-78
2022/07/22 04:23:42;;;;;;;2.25;0.93;;;;;;;25.42;34.56;99697.75;4374501;32;33856;-79
2022/07/22 04:26:12;;;;;;;1.73;0.90;;;;;;;25.49;34.73;99695.47;4377590;32;33260;-79
2022/07/22 04:28:41;;;;;;;2.00;1.08;;;;;;;25.47;35.22;99686.78;4383808;32;33762;-77
2022/07/22 04:31:09;;;;;;;1.48;0.90;;;;;;;25.61;35.67;99691.03;4376921;32;34042;-80
2022/07/22 04:33:41;;;;;;;;;;;;;;;25.73;35.83;99692.75;4371952;32;33272;-79
2022/07/22 04:36:12;;;;;;;2.50;1.02;;;;;;;25.78;35.90;99695.91;4371197;32;33164;-78
2022/07/22 04:38:45;;;;;;;1.33;0.80;;;;;;;25.87;36.27;99689.94;4371830;32;33554;-77
2022/07/22 04:41:14;;;;;;;4.10;1.02;;;;;;;25.99;35.98;99688.13;4381236;32;33944;-79
2022/07/22 04:43:46;;;;;;;1.87;0.90;;;;;;;26.04;36.52;99695.75;4374747;32;34415;-78
2022/07/22 04:46:15;;;;;;;2.62;1.12;;;;;;;26.16;37.29;99698.31;4386411;32;34056;-79
2022/07/22 04:48:46;;;;;;;2.00;1.12;;;;;;;26.32;36.92;99694.47;4383032;32;34840;-78
2022/07/22 04:51:16;;;;;;;;;;;;;;;26.50;35.12;99693.00;4376544;32;34680;-79
2022/07/22 04:53:55;;;;;;;2.13;1.10;;;;;;;26.78;36.30;99694.31;4379377;32;32620;-78
2022/07/22 04:56:24;;;;;;;2.37;1.00;;;;;;;27.21;33.27;99690.84;4386737;32;34028;-79
2022/07/22 04:58:58;;;;;;;1.83;1.20;;;;;;;27.41;33.49;99696.34;4376308;32;33686;-79
2022/07/22 05:01:33;;;;;;;2.83;1.37;;;;;;;27.81;32.80;99693.84;4377088;32;34147;-79
2022/07/22 05:04:02;;;;;;;2.83;1.30;;;;;;;28.54;32.08;99696.50;4383759;32;34577;-79
2022/07/22 05:06:35;;;;;;;2.20;1.30;;;;;;;29.33;29.80;99691.19;4387168;32;33909;-79
2022/07/22 05:09:04;;;;;;;2.22;1.00;;;;;;;29.92;29.64;99696.50;4387893;32;34045;-78
2022/07/22 05:11:35;;;;;;;3.42;1.33;;;;;;;30.15;29.23;99697.81;4376455;32;34090;-78
2022/07/22 05:14:04;;;;;;;1.98;1.00;;;;;;;30.51;28.30;99703.34;4373411;32;34185;-79
2022/07/22 05:16:38;;;;;;;7.85;1.52;;;;;;;30.81;27.79;99710.25;4379816;32;34766;-79
2022/07/22 05:19:07;;;;;;;3.33;1.27;;;;;;;30.66;28.42;99713.56;4378632;32;34050;-79
2022/07/22 05:21:45;;;;;;;3.67;1.50;;;;;;;30.38;29.51;99718.91;4371693;32;34502;-79
2022/07/22 05:24:23;;;;;;;2.28;1.23;;;;;;;30.26;29.38;99714.75;4376317;32;33582;-79
2022/07/22 05:26:54;;;;;;;3.00;1.00;;;;;;;30.33;29.29;99713.16;4376269;32;33866;-78
2022/07/22 05:29:39;;;;;;;4.78;1.67;;;;;;;30.35;28.49;99709.34;4377659;32;34172;-77
2022/07/22 05:32:10;;;;;;;1.65;1.00;;;;;;;30.27;28.65;99713.75;4374099;32;34243;-78
2022/07/22 05:34:42;;;;;;;2.08;0.98;;;;;;;30.17;28.83;99711.06;4372073;32;33113;-78
2022/07/22 05:37:16;;;;;;;2.58;1.10;;;;;;;30.15;29.54;99721.91;4375188;32;34010;-78
2022/07/22 05:39:48;;;;;;;2.97;1.37;;;;;;;30.33;28.95;99727.37;4377592;32;33895;-80
2022/07/22 05:42:17;;;;;;;12.20;1.83;;;;;;;30.44;29.14;99725.50;4379005;32;33888;-80
2022/07/22 05:44:46;;;;;;;2.28;1.15;;;;;;;30.54;29.38;99721.81;4387454;32;33545;-79
2022/07/22 05:47:19;;;;;;;4.28;1.27;;;;;;;30.79;29.37;99728.31;4384688;32;33060;-80
2022/07/22 05:49:53;;;;;;;5.32;1.62;;;;;;;30.76;28.22;99722.38;4383322;32;34750;-80
2022/07/22 05:52:24;;;;;;;4.40;1.27;;;;;;;30.62;29.32;99721.91;4388881;32;33948;-80
2022/07/22 05:55:00;;;;;;;3.45;0.98;;;;;;;30.71;29.30;99728.22;4390324;32;33562;-80
2022/07/22 05:57:33;;;;;;;7.55;1.15;;;;;;;30.68;29.06;99727.66;4388291;32;35465;-78
2022/07/22 06:00:03;;;;;;;2.58;1.40;;;;;;;30.48;29.36;99734.94;4380545;32;34753;-81
2022/07/22 06:02:46;;;;;;;3.08;1.20;;;;;;;30.55;29.92;99730.69;4381470;32;34086;-79
2022/07/22 06:05:16;;;;;;;1.75;0.90;;;;;;;30.72;28.94;99739.78;4380119;32;34050;-79
2022/07/22 06:08:09;;;;;;;2.87;1.20;;;;;;;30.91;28.17;99726.31;4372245;32;33963;-78
2022/07/22 06:10:39;;;;;;;2.28;1.05;;;;;;;31.17;27.45;99725.56;4376067;32;33332;-78
2022/07/22 06:13:10;;;;;;;2.40;1.23;;;;;;;31.29;26.06;99726.16;4390015;32;33442;-80
2022/07/22 06:15:42;;;;;;;2.25;0.93;;;;;;;31.17;25.98;99725.56;4371253;32;33511;-79
2022/07/22 06:18:11;;;;;;;1.67;0.90;;;;;;;31.11;25.57;99732.38;4385011;32;33904;-78
2022/07/22 06:20:45;;;;;;;1.85;0.95;;;;;;;31.07;26.67;99730.97;4384865;32;33977;-77
2022/07/22 06:23:15;;;;;;;1.35;0.88;;;;;;;31.13;25.41;99732.22;4376048;32;34206;-78
2022/07/22 06:25:46;;;;;;;3.12;1.08;;;;;;;31.23;25.32;99731.16;4387174;32;33784;-78
2022/07/22 06:28:15;;;;;;;0.80;0.70;;;;;;;31.25;25.32;99729.16;4383020;32;33549;-79
2022/07/22 06:30:46;;;;;;;2.85;1.15;;;;;;;31.02;23.73;99728.75;4375117;32;33983;-78
2022/07/22 06:33:18;;;;;;;1.80;0.82;;;;;;;31.12;23.83;99726.03;4377105;32;34794;-77
2022/07/22 06:35:49;;;;;;;1.40;0.90;;;;;;;31.23;23.70;99719.59;4373212;32;35034;-79
2022/07/22 06:38:20;;;;;;;1.48;0.70;;;;;;;31.23;24.07;99730.31;4371557;32;33630;-79
2022/07/22 06:41:01;;;;;;;1.73;0.77;;;;;;;31.17;24.94;99728.22;4376981;32;32549;-78
2022/07/22 06:43:35;;;;;;;1.75;0.90;;;;;;;31.26;24.02;99730.84;4376725;32;34544;-79
2022/07/22 06:46:05;;;;;;;0.93;0.60;;;;;;;31.33;24.89;99731.06;4373280;32;34092;-79
2022/07/22 06:48:35;;;;;;;3.42;1.10;;;;;;;31.36;24.42;99732.59;4372532;32;33958;-79
2022/07/22 06:51:04;;;;;;;2.47;1.10;;;;;;;31.30;24.40;99731.41;4372795;32;34029;-79
2022/07/22 06:53:37;;;;;;;2.55;1.00;;;;;;;31.21;25.04;99732.31;4372043;32;33918;-80
2022/07/22 06:56:07;;;;;;;2.85;1.45;;;;;;;31.27;23.49;99726.34;4389950;32;33726;-78
2022/07/22 06:58:43;;;;;;;1.42;0.70;;;;;;;31.36;24.21;99732.59;4379164;32;33769;-79
2022/07/22 07:01:16;;;;;;;1.90;0.97;;;;;;;31.64;22.71;99718.16;4377714;32;34852;-78
2022/07/22 07:03:48;;;;;;;1.42;0.60;;;;;;;31.28;24.13;99716.47;4370020;32;34763;-78
2022/07/22 07:06:21;;;;;;;1.15;0.80;;;;;;;31.68;25.12;99719.53;4371961;32;34414;-79
2022/07/22 07:08:52;;;;;;;2.42;1.00;;;;;;;31.74;24.04;99714.53;4372069;32;34493;-78
2022/07/22 07:11:24;;;;;;;3.17;0.80;;;;;;;31.43;23.38;99718.47;4390217;32;33661;-78
2022/07/22 07:13:54;;;;;;;1.85;0.70;;;;;;;31.57;23.37;99717.09;4382440;32;34197;-77
2022/07/22 07:16:24;;;;;;;3.60;0.95;;;;;;;31.60;23.58;99715.94;4386738;32;33814;-78
2022/07/22 07:18:54;;;;;;;1.92;0.82;;;;;;;32.12;21.92;99716.00;4374700;32;33730;-78
2022/07/22 07:21:27;;;;;;;1.80;1.00;;;;;;;31.98;23.14;99714.75;4380295;32;34032;-79
2022/07/22 07:23:57;;;;;;;2.72;0.93;;;;;;;32.20;23.90;99716.03;4387094;32;34938;-78
2022/07/22 07:26:27;;;;;;;1.95;0.88;;;;;;;32.25;22.69;99710.19;4386686;32;33126;-78
2022/07/22 07:28:56;;;;;;;0.95;0.60;;;;;;;32.27;22.25;99711.72;4382132;32;33630;-78
2022/07/22 07:31:29;;;;;;;2.42;0.90;;;;;;;32.52;22.05;99717.25;4379919;32;33065;-78
2022/07/22 07:33:59;;;;;;;2.83;0.88;;;;;;;32.64;21.14;99715.09;4373281;32;33891;-80
2022/07/22 07:36:28;;;;;;;1.15;0.60;;;;;;;32.69;22.00;99710.09;4375190;32;33520;-78
2022/07/22 07:38:59;;;;;;;3.12;1.12;;;;;;;32.96;22.19;99711.69;4381905;32;33590;-79
2022/07/22 07:41:31;;;;;;;1.77;0.80;;;;;;;33.03;22.20;99710.06;4372343;32;33748;-79
2022/07/22 07:44:00;;;;;;;4.35;0.90;;;;;;;32.96;21.61;99709.03;4372276;32;33462;-79
2022/07/22 07:46:29;;;;;;;2.37;0.70;;;;;;;33.33;20.62;99710.44;4379129;32;33534;-78
2022/07/22 07:48:59;;;;;;;1.33;0.70;;;;;;;33.20;20.54;99710.06;4376339;32;33804;-80
2022/07/22 07:51:35;;;;;;;1.75;0.90;;;;;;;33.19;21.59;99711.94;4384625;32;34789;-80
2022/07/22 07:54:05;;;;;;;1.40;0.70;;;;;;;33.44;19.68;99715.50;4377823;32;35111;-79
2022/07/22 07:56:41;;;;;;;1.95;1.10;;;;;;;33.30;19.82;99710.78;4384405;32;33824;-78
2022/07/22 07:59:10;;;;;;;2.80;1.00;;;;;;;33.08;20.21;99713.09;4384237;32;34711;-80
2022/07/22 08:02:00;;;;;;;2.85;1.17;;;;;;;33.27;20.88;99714.66;4380020;32;33393;-79
2022/07/22 08:04:30;;;;;;;1.80;0.55;;;;;;;33.54;18.82;99710.78;4378786;32;34286;-79
2022/07/22 08:07:08;;;;;;;21.67;3.37;;;;;;;33.25;19.67;99713.97;4403234;32;33980;-79
2022/07/22 08:09:47;;;;;;;2.37;0.75;;;;;;;33.12;20.67;99706.38;4408083;32;33856;-79
2022/07/22 08:12:16;;;;;;;0.60;0.57;;;;;;;33.44;19.60;99704.75;4403657;32;34003;-78
2022/07/22 08:14:57;;;;;;;1.45;0.40;;;;;;;33.80;18.85;99712.47;4395972;32;33729;-78
2022/07/22 08:17:27;;;;;;;2.17;0.63;;;;;;;34.04;19.37;99710.75;4373216;32;33508;-80
2022/07/22 08:19:57;;;;;;;2.10;0.70;;;;;;;33.93;19.52;99703.91;4383982;32;33544;-80
2022/07/22 08:22:29;;;;;;;1.90;1.00;;;;;;;34.10;18.88;99697.50;4387017;32;34035;-79
2022/07/22 08:24:59;;;;;;;2.10;1.10;;;;;;;34.15;18.14;99705.06;4392845;32;34263;-79
2022/07/22 08:27:29;;;;;;;2.40;1.12;;;;;;;34.41;19.36;99711.03;4392083;32;32949;-80
2022/07/22 08:29:59;;;;;;;4.90;1.33;;;;;;;34.33;20.11;99708.34;4387694;32;34243;-80
2022/07/22 08:32:31;;;;;;;1.33;0.62;;;;;;;34.25;20.45;99700.31;4391126;32;33925;-79
2022/07/22 08:35:01;;;;;;;2.35;0.80;;;;;;;34.50;18.41;99706.44;4381929;32;34302;-79
2022/07/22 08:37:33;;;;;;;4.12;0.88;;;;;;;34.69;18.66;99712.47;4386057;32;33577;-78
2022/07/22 08:40:06;;;;;;;1.83;1.00;;;;;;;34.45;18.67;99705.28;4380055;32;34539;-80
2022/07/22 08:42:38;;;;;;;1.40;0.70;;;;;;;34.69;19.51;99712.47;4381219;32;33552;-80
2022/07/22 08:45:08;;;;;;;2.47;0.60;;;;;;;34.57;18.83;99712.81;4381100;32;33669;-79
2022/07/22 08:47:46;;;;;;;2.30;0.90;;;;;;;34.84;19.10;99716.94;4387225;32;34455;-79
2022/07/22 08:50:20;;;;;;;1.98;1.10;;;;;;;34.49;18.42;99712.00;4387661;32;34616;-79
2022/07/22 08:52:49;;;;;;;1.83;0.95;;;;;;;34.88;19.11;99711.19;4388610;32;33956;-79
2022/07/22 08:55:20;;;;;;;1.50;0.90;;;;;;;34.91;17.85;99713.50;4387939;32;34178;-78
2022/07/22 08:57:50;;;;;;;3.12;1.40;;;;;;;34.93;18.22;99709.63;4387693;32;32639;-80
2022/07/22 09:00:23;;;;;;;1.98;0.77;;;;;;;35.15;17.96;99708.00;4386027;32;33793;-80
2022/07/22 09:02:52;;;;;;;4.32;1.10;;;;;;;34.91;18.33;99700.03;4385196;32;33823;-79
2022/07/22 09:05:23;;;;;;;2.87;1.20;;;;;;;35.24;20.38;99703.41;4383922;32;33776;-79
2022/07/22 09:08:14;;;;;;;4.25;1.00;;;;;;;35.08;19.15;99701.63;4385859;32;33158;-80
2022/07/22 09:10:48;;;;;;;1.60;1.00;;;;;;;35.20;19.44;99705.59;4379262;32;33727;-79
2022/07/22 09:13:18;;;;;;;1.08;0.57;;;;;;;35.16;18.19;99701.59;4382145;32;34519;-79
2022/07/22 09:15:49;;;;;;;1.25;0.85;;;;;;;35.32;18.38;99697.09;4381967;32;34888;-80
2022/07/22 09:18:19;;;;;;;2.58;1.27;;;;;;;35.46;19.60;99699.00;4385284;32;33402;-80
2022/07/22 09:20:49;;;;;;;7.32;1.25;;;;;;;35.63;18.65;99695.19;4382065;32;33640;-79
2022/07/22 09:23:23;;;;;;;5.57;1.33;;;;;;;35.66;18.32;99689.41;4385626;32;33789;-80
2022/07/22 09:25:57;;;;;;;3.03;1.20;;;;;;;35.68;18.83;99687.38;4391005;32;34452;-80
2022/07/22 09:28:26;;;;;;;2.28;0.90;;;;;;;35.46;19.24;99689.06;4383029;32;32988;-78
2022/07/22 09:31:00;;;;;;;3.20;1.48;;;;;;;35.68;19.25;99692.75;4391807;32;33539;-80
2022/07/22 09:33:30;;;;;;;3.95;2.28;;;;;;;35.39;18.90;99695.34;4382502;32;33361;-81
2022/07/22 09:36:04;;;;;;;3.47;1.08;;;;;;;35.28;20.20;99695.78;4383963;32;33545;-80
2022/07/22 09:38:36;;;;;;;3.20;1.50;;;;;;;35.35;18.98;99696.72;4385111;32;33626;-78
2022/07/22 09:41:07;;;;;;;1.83;1.12;;;;;;;35.63;19.13;99695.19;4380320;32;33500;-79
2022/07/22 09:43:46;;;;;;;2.53;1.30;;;;;;;35.32;20.10;99697.09;4381835;32;34180;-78
2022/07/22 09:46:23;;;;;;;2.33;1.02;;;;;;;35.48;19.27;99691.59;4378711;32;34158;-78
2022/07/22 09:48:54;;;;;;;4.80;1.23;;;;;;;35.73;19.07;99680.59;4378408;32;34144;-79
2022/07/22 09:51:28;;;;;;;6.43;1.35;;;;;;;35.84;19.14;99685.56;4392887;32;34198;-79
2022/07/22 09:53:58;;;;;;;1.73;1.02;;;;;;;35.82;19.04;99676.78;4387913;32;33587;-80
2022/07/22 09:56:32;;;;;;;5.97;1.40;;;;;;;36.21;19.52;99678.41;4387008;32;33931;-80
2022/07/22 09:59:02;;;;;;;;;;;;;;;36.17;19.39;99674.41;4391314;32;32892;-78
2022/07/22 10:01:36;;;;;;;2.42;1.20;;;;;;;36.53;20.08;99674.47;4384500;32;33890;-79
2022/07/22 10:04:07;;;;;;;2.20;1.33;;;;;;;36.51;19.21;99671.97;4391161;32;33957;-80
2022/07/22 10:06:38;;;;;;;2.20;1.25;;;;;;;36.15;20.97;99677.31;4390724;32;34093;-79
2022/07/22 10:09:15;;;;;;;2.90;1.40;;;;;;;36.37;21.79;99669.28;4393228;32;33412;-78
2022/07/22 10:11:52;;;;;;;5.43;2.00;;;;;;;36.61;20.91;99674.41;4390530;32;33102;-79
2022/07/22 10:14:22;;;;;;;3.80;1.98;;;;;;;36.50;21.52;99670.28;4395336;32;33843;-80
2022/07/22 10:16:53;;;;;;;3.25;1.80;;;;;;;36.78;21.62;99663.34;4407219;32;34447;-78
2022/07/22 10:19:23;;;;;;;4.07;1.98;;;;;;;35.70;23.25;99656.69;4391161;32;33620;-78
2022/07/22 10:21:54;;;;;;;4.82;2.28;;;;;;;36.12;22.74;99660.63;4387624;32;34928;-78
2022/07/22 10:24:25;;;;;;;3.55;1.98;;;;;;;36.21;23.33;99660.34;4380453;32;34079;-78
2022/07/22 10:27:06;;;;;;;3.58;1.92;;;;;;;36.55;22.94;99655.38;4391431;32;34068;-80
2022/07/22 10:29:43;;;;;;;4.03;1.58;;;;;;;36.40;22.69;99652.69;4392396;32;34316;-79
2022/07/22 10:32:25;;;;;;;3.70;1.52;;;;;;;36.36;24.06;99656.78;4390986;32;34513;-78
2022/07/22 10:35:29;;;;;;;3.55;1.80;;;;;;;36.63;22.61;99652.56;4389170;32;34013;-80
2022/07/22 10:38:01;;;;;;;4.03;1.77;;;;;;;36.68;22.62;99650.13;4382487;32;34289;-80
2022/07/22 10:40:48;;;;;;;3.75;2.03;;;;;;;36.73;22.24;99650.44;4386924;32;33995;-79
2022/07/22 10:43:19;;;;;;;4.45;1.80;;;;;;;36.52;22.03;99657.41;4386578;32;34616;-79
2022/07/22 10:46:02;;;;;;;2.72;1.60;;;;;;;36.74;21.64;99650.22;4377670;32;34651;-79
2022/07/22 10:48:48;;;;;;;2.62;1.50;;;;;;;36.77;21.23;99648.16;4375443;32;34353;-80
2022/07/22 10:51:26;;;;;;;4.32;2.10;;;;;;;36.80;20.30;99643.22;4377030;32;34255;-80
2022/07/22 10:53:57;;;;;;;3.35;1.85;;;;;;;37.04;20.39;99650.09;4385063;32;34570;-80
2022/07/22 10:56:29;;;;;;;3.80;1.60;;;;;;;37.25;20.49;99645.75;4391858;32;33907;-80
2022/07/22 10:59:19;;;;;;;3.20;1.50;;;;;;;37.21;20.04;99636.34;4383749;32;34684;-81
2022/07/22 11:01:52;;;;;;;4.18;1.98;;;;;;;37.22;19.19;99625.34;4384911;32;33583;-80
2022/07/22 11:04:26;;;;;;;3.75;1.55;;;;;;;36.99;20.78;99632.78;4383832;32;34350;-80
2022/07/22 11:06:56;;;;;;;3.97;1.75;;;;;;;37.20;19.62;99624.69;4385161;32;34732;-80
2022/07/22 11:09:35;;;;;;;3.33;1.62;;;;;;;37.69;19.67;99623.00;4385522;32;34262;-80
2022/07/22 11:12:13;;;;;;;4.90;2.12;;;;;;;37.76;20.19;99624.72;4380208;32;34233;-80
2022/07/22 11:14:46;;;;;;;2.60;1.30;;;;;;;37.89;19.93;99626.69;4382406;32;34190;-80
2022/07/22 11:17:23;;;;;;;3.78;1.90;;;;;;;37.93;18.70;99616.28;4372386;32;34949;-79
2022/07/22 11:19:59;;;;;;;4.12;1.60;;;;;;;37.81;19.73;99620.59;4380946;32;33921;-79
2022/07/22 11:22:34;;;;;;;3.33;1.30;;;;;;;37.62;19.48;99614.84;4378044;32;34405;-79
2022/07/22 11:25:06;;;;;;;3.25;1.62;;;;;;;37.93;19.75;99616.28;4385298;32;34571;-80
2022/07/22 11:27:37;;;;;;;3.00;1.55;;;;;;;37.97;19.88;99612.97;4376504;32;34606;-79
2022/07/22 11:30:08;;;;;;;2.55;1.40;;;;;;;37.88;19.39;99614.19;4376385;32;32940;-80
2022/07/22 11:32:44;;;;;;;2.17;1.45;;;;;;;37.92;19.93;99611.91;4382734;32;34349;-79
2022/07/22 11:35:17;;;;;;;3.17;1.62;;;;;;;38.25;19.20;99608.53;4392286;32;33752;-81
2022/07/22 11:38:01;;;;;;;2.75;1.30;;;;;;;38.22;19.09;99613.31;4387098;32;34647;-79
2022/07/22 11:40:33;;;;;;;4.07;1.60;;;;;;;37.95;19.19;99606.09;4377326;32;34789;-80
2022/07/22 11:43:09;;;;;;;2.78;1.42;;;;;;;38.04;18.98;99595.97;4378439;32;34408;-81
2022/07/22 11:45:57;;;;;;;3.12;1.50;;;;;;;38.46;19.79;99592.19;4374994;32;33467;-80
2022/07/22 11:48:26;;;;;;;2.58;1.20;;;;;;;39.15;19.52;99593.78;4370756;32;34461;-79
2022/07/22 11:51:00;;;;;;;2.40;1.27;;;;;;;39.42;17.93;99589.22;4376973;32;33890;-81
2022/07/22 11:53:38;;;;;;;3.87;1.33;;;;;;;39.78;17.34;99587.06;4383431;32;32983;-80
2022/07/22 11:56:11;;;;;;;;;;;;;;;39.62;17.42;99582.91;4380691;32;34201;-81
2022/07/22 11:58:42;;;;;;;5.15;1.00;;;;;;;39.59;17.38;99578.75;4373613;32;34409;-81